KTCL/TCL METAR and TAF weather

Enter ICAO airport designator
Station Type Date Time Source
KTCL METAR 2019/06/18 16:32 UTC NOAA

KTCL 181632Z 20009KT 10SM FEW019 SCT031 BKN043 29/22 A2996 RMK AO2 T02890222 $


Station Type Date Time Source
KTCL Decoded METAR 2019/06/18 16:32 UTC NOAA

TUSCALOOSA REGIONAL AIRPORT, AL, United States (KTCL) 33-13N 087-37W
Jun 18, 2019 - 12:32 PM EDT / 2019.06.18 1632 UTC
Wind: from the SSW (200 degrees) at 10 MPH (9 KT):0
Visibility: 10 mile(s):0
Sky conditions: mostly cloudy
Temperature: 84.0 F (28.9 C)
Dew Point: 72.0 F (22.2 C)
Relative Humidity: 67%
Pressure (altimeter): 29.96 in. Hg (1014 hPa)
ob: KTCL 181632Z 20009KT 10SM FEW019 SCT031 BKN043 29/22 A2996 RMK AO2 T02890222
cycle: 16

Station Type Date Time Source
KTCL TAF 2019/06/18 13:42 UTC NOAA

TAF
AMD KTCL 181241Z 1813/1912 15002KT P6SM -RA VCTS SCT020 BKN050CB
TEMPO 1813/1815 2SM TSRA BKN020CB
FM181700 18006KT 5SM -SHRA VCTS OVC035CB
FM190100 20006KT P6SM VCSH BKN050
FM190800 19005KT P6SM VCSH OVC025

Example: see airport list